Time;durP1;ratioP1;P1;durP2;ratioP2;P2;SDS_P1;SDS_P2;PMS_P1;PMS_P2;Temp;Humidity;BMP_temperature;BMP_pressure;BME280_temperature;BME280_humidity;BME280_pressure;Samples;Min_cycle;Max_cycle;Signal;HPM_P1;HPM_P2
2022/06/25 00:01:51;;;;;;;7.07;5.38;;;20.80;83.40;;;;;;5050099;28;20025;-76
2022/06/25 00:07:02;;;;;;;8.68;5.05;;;20.80;83.70;;;;;;5050598;28;20032;-78
2022/06/25 00:09:28;;;;;;;9.15;5.38;;;20.90;83.60;;;;;;5040353;28;20095;-78
2022/06/25 00:14:39;;;;;;;7.32;5.25;;;20.70;84.10;;;;;;5041875;28;20036;-78
2022/06/25 00:17:05;;;;;;;9.75;5.38;;;20.70;84.80;;;;;;5045981;28;20021;-76
2022/06/25 00:19:31;;;;;;;6.63;5.07;;;20.70;84.30;;;;;;5041470;28;20487;-78
2022/06/25 00:22:00;;;;;;;8.57;5.65;;;20.70;84.70;;;;;;5050413;28;20156;-77
2022/06/25 00:24:26;;;;;;;7.32;5.50;;;20.70;84.60;;;;;;5035860;28;20013;-78
2022/06/25 00:26:52;;;;;;;6.53;4.32;;;20.70;84.50;;;;;;5044316;28;20029;-78
2022/06/25 00:29:17;;;;;;;6.50;5.05;;;20.70;84.70;;;;;;5047938;28;20540;-77
2022/06/25 00:31:43;;;;;;;8.82;4.95;;;20.60;84.70;;;;;;5046831;28;20494;-78
2022/06/25 00:34:09;;;;;;;7.57;5.03;;;20.70;85.00;;;;;;5043203;28;20017;-78
2022/06/25 00:36:35;;;;;;;7.03;4.28;;;20.70;85.00;;;;;;5039800;28;20052;-78
2022/06/25 00:39:00;;;;;;;5.90;3.92;;;20.60;84.70;;;;;;5039971;28;20044;-78
2022/06/25 00:41:26;;;;;;;6.95;3.92;;;20.60;84.90;;;;;;5041396;28;20041;-77
2022/06/25 00:43:52;;;;;;;6.95;3.85;;;20.60;84.90;;;;;;5044700;28;20032;-78
2022/06/25 00:46:17;;;;;;;5.78;3.65;;;20.50;84.80;;;;;;5027595;28;20036;-77
2022/06/25 00:48:43;;;;;;;5.28;3.72;;;20.50;84.70;;;;;;5041602;28;20029;-77
2022/06/25 00:51:14;;;;;;;4.80;3.20;;;20.50;84.80;;;;;;5039362;28;20017;-77
2022/06/25 00:53:44;;;;;;;5.63;3.47;;;20.50;84.70;;;;;;5049200;28;20047;-78
2022/06/25 00:56:13;;;;;;;8.43;3.03;;;20.40;84.70;;;;;;5036573;28;20053;-78
2022/06/25 00:58:42;;;;;;;6.32;2.80;;;20.40;84.80;;;;;;5044376;28;20028;-78
2022/06/25 01:01:08;;;;;;;5.15;3.13;;;20.40;84.30;;;;;;5036633;28;20048;-78
2022/06/25 01:03:35;;;;;;;7.45;3.40;;;20.30;84.40;;;;;;5041483;28;20176;-78
2022/06/25 01:06:02;;;;;;;6.35;3.35;;;20.30;84.50;;;;;;5039691;28;20044;-78
2022/06/25 01:08:28;;;;;;;4.07;2.45;;;20.30;84.70;;;;;;5035981;28;20080;-78
2022/06/25 01:10:54;;;;;;;3.33;2.30;;;20.30;84.50;;;;;;5037191;28;20084;-77
2022/06/25 01:13:21;;;;;;;5.13;2.63;;;20.20;84.30;;;;;;5042557;28;20045;-77
2022/06/25 01:15:48;;;;;;;5.10;2.90;;;20.20;84.20;;;;;;5042909;28;20479;-78
2022/06/25 01:18:13;;;;;;;4.55;2.92;;;20.30;84.30;;;;;;5045224;28;20059;-78
2022/06/25 01:20:39;;;;;;;4.63;2.15;;;20.20;84.40;;;;;;5041789;28;20551;-77
2022/06/25 01:23:05;;;;;;;5.35;3.08;;;20.20;84.00;;;;;;5038843;28;20030;-78
2022/06/25 01:25:35;;;;;;;5.30;2.92;;;20.20;84.40;;;;;;5041324;28;20045;-77
2022/06/25 01:28:02;;;;;;;;;;;20.20;84.30;;;;;;5046055;28;20119;-79
2022/06/25 01:30:27;;;;;;;6.35;2.85;;;20.10;83.70;;;;;;5040203;28;19991;-78
2022/06/25 01:32:53;;;;;;;5.07;2.80;;;20.10;84.00;;;;;;5037642;28;20852;-79
2022/06/25 01:35:19;;;;;;;6.43;2.72;;;20.10;84.50;;;;;;5046418;28;20033;-77
2022/06/25 01:37:44;;;;;;;6.13;3.42;;;20.10;84.60;;;;;;5038985;28;20066;-77
2022/06/25 01:40:12;;;;;;;4.03;2.25;;;20.20;84.70;;;;;;5042966;28;20048;-77
2022/06/25 01:45:22;;;;;;;6.57;3.15;;;20.10;84.30;;;;;;5049716;28;20411;-78
2022/06/25 01:47:47;;;;;;;4.55;2.67;;;20.10;84.70;;;;;;5036588;28;20021;-77
2022/06/25 01:50:13;;;;;;;4.35;2.55;;;20.10;84.90;;;;;;5046356;28;20398;-78
2022/06/25 01:52:46;;;;;;;7.35;3.22;;;20.20;84.90;;;;;;5038128;28;20037;-78
2022/06/25 01:55:12;;;;;;;4.03;3.03;;;20.10;84.90;;;;;;5043719;28;20017;-76
2022/06/25 01:57:39;;;;;;;4.63;2.88;;;20.20;85.00;;;;;;5039740;28;20113;-78
2022/06/25 02:00:07;;;;;;;5.25;2.88;;;20.10;84.90;;;;;;5036641;28;20021;-77
2022/06/25 02:02:35;;;;;;;7.32;3.50;;;20.10;85.10;;;;;;5038831;28;20102;-77
2022/06/25 02:05:01;;;;;;;3.65;2.47;;;20.10;85.10;;;;;;5027379;28;20472;-77
2022/06/25 02:07:26;;;;;;;8.00;3.13;;;20.10;84.80;;;;;;5041461;28;20100;-78
2022/06/25 02:09:52;;;;;;;6.82;3.10;;;20.00;84.40;;;;;;5047392;28;20453;-80
2022/06/25 02:12:18;;;;;;;5.55;3.08;;;20.00;85.20;;;;;;5040431;28;20041;-76
2022/06/25 02:14:43;;;;;;;4.82;3.03;;;20.00;85.40;;;;;;5041619;28;20025;-79
2022/06/25 02:17:09;;;;;;;6.20;3.70;;;20.00;85.50;;;;;;5041750;28;20044;-78
2022/06/25 02:19:35;;;;;;;4.38;2.88;;;20.00;85.10;;;;;;5040041;28;20066;-77
2022/06/25 02:22:01;;;;;;;4.88;3.10;;;19.90;85.00;;;;;;5040231;28;20029;-78
2022/06/25 02:24:26;;;;;;;4.80;2.83;;;19.90;85.20;;;;;;5040715;28;20755;-78
2022/06/25 02:26:52;;;;;;;6.13;3.35;;;20.00;85.40;;;;;;5046509;28;20850;-78
2022/06/25 02:29:18;;;;;;;7.72;4.03;;;20.00;85.30;;;;;;5038320;28;20041;-77
2022/06/25 02:31:43;;;;;;;4.75;3.47;;;20.00;85.60;;;;;;5044103;28;20025;-78
2022/06/25 02:34:09;;;;;;;5.03;2.60;;;20.00;85.80;;;;;;5037175;28;20399;-78
2022/06/25 02:36:34;;;;;;;5.38;3.10;;;20.00;85.40;;;;;;5042792;28;20025;-77
2022/06/25 02:39:00;;;;;;;6.05;3.50;;;19.90;85.70;;;;;;5037924;28;20039;-78
2022/06/25 02:41:26;;;;;;;5.90;3.63;;;20.00;85.80;;;;;;5043379;28;20491;-78
2022/06/25 02:43:52;;;;;;;7.25;3.40;;;19.90;85.80;;;;;;5039117;28;20099;-78
2022/06/25 02:46:18;;;;;;;5.25;2.55;;;19.90;85.80;;;;;;5039491;28;20107;-77
2022/06/25 02:48:44;;;;;;;6.35;3.33;;;19.90;85.20;;;;;;5045375;28;20093;-78
2022/06/25 02:51:09;;;;;;;5.00;3.08;;;19.80;85.50;;;;;;5046639;28;20037;-78
2022/06/25 02:53:35;;;;;;;8.18;3.75;;;19.80;85.90;;;;;;5049816;28;20040;-78
2022/06/25 02:58:55;;;;;;;4.43;2.92;;;19.80;86.20;;;;;;5049297;28;20475;-77
2022/06/25 03:01:25;;;;;;;6.47;3.45;;;19.80;86.20;;;;;;5049399;28;20135;-78
2022/06/25 03:03:52;;;;;;;5.50;3.70;;;19.80;86.10;;;;;;5041067;28;20021;-78
2022/06/25 03:06:19;;;;;;;5.57;3.50;;;19.80;86.00;;;;;;5044455;28;20017;-78
2022/06/25 03:08:45;;;;;;;8.02;3.70;;;19.80;85.70;;;;;;5046012;28;20020;-78
2022/06/25 03:11:11;;;;;;;8.18;4.75;;;19.70;86.10;;;;;;5041251;28;20048;-79
2022/06/25 03:13:37;;;;;;;5.68;3.70;;;19.80;86.30;;;;;;5040556;28;20672;-78
2022/06/25 03:16:04;;;;;;;5.85;3.95;;;19.80;86.30;;;;;;5040411;28;20089;-77
2022/06/25 03:18:30;;;;;;;5.53;3.58;;;19.80;86.40;;;;;;5045409;28;20517;-77
2022/06/25 03:20:56;;;;;;;6.75;3.70;;;19.80;86.10;;;;;;5039142;28;20049;-77
2022/06/25 03:23:22;;;;;;;5.63;2.88;;;19.70;85.80;;;;;;5044822;28;20123;-77
2022/06/25 03:25:48;;;;;;;7.30;3.40;;;19.70;85.80;;;;;;5040236;28;20116;-78
2022/06/25 03:28:14;;;;;;;4.82;3.25;;;19.70;86.00;;;;;;5041785;28;20013;-78
2022/06/25 03:30:40;;;;;;;5.40;3.05;;;19.70;85.60;;;;;;5043694;28;20489;-77
2022/06/25 03:33:06;;;;;;;6.75;3.15;;;19.70;86.30;;;;;;5045966;28;20018;-78
2022/06/25 03:35:32;;;;;;;5.93;3.25;;;19.60;85.50;;;;;;5045562;28;20022;-79
2022/06/25 03:37:57;;;;;;;6.90;3.53;;;19.60;85.80;;;;;;5037680;28;20052;-79
2022/06/25 03:40:23;;;;;;;5.05;2.83;;;19.60;85.40;;;;;;5041223;28;20583;-78
2022/06/25 03:42:49;;;;;;;7.13;3.40;;;19.60;85.00;;;;;;5046167;28;20037;-79
2022/06/25 03:45:15;;;;;;;6.22;3.35;;;19.50;85.00;;;;;;5036558;28;20179;-78
2022/06/25 03:47:41;;;;;;;9.88;3.55;;;19.60;85.20;;;;;;5039426;28;20029;-78
2022/06/25 03:50:07;;;;;;;5.03;2.78;;;19.50;85.20;;;;;;5041469;28;20077;-79
2022/06/25 03:52:33;;;;;;;6.60;3.28;;;19.50;85.20;;;;;;5038572;28;20024;-79
2022/06/25 03:54:59;;;;;;;7.28;3.22;;;19.50;85.30;;;;;;5046480;28;20066;-77
2022/06/25 03:57:25;;;;;;;6.13;3.58;;;19.50;85.00;;;;;;5040753;28;20062;-77
2022/06/25 03:59:52;;;;;;;6.50;3.17;;;19.60;84.90;;;;;;5050122;28;20353;-78
2022/06/25 04:02:17;;;;;;;9.23;4.07;;;19.60;84.80;;;;;;5038677;28;20488;-78
2022/06/25 04:04:43;;;;;;;6.68;3.13;;;19.50;84.60;;;;;;5046177;28;20071;-79
2022/06/25 04:07:09;;;;;;;5.70;3.10;;;19.50;84.80;;;;;;5038934;28;20550;-78
2022/06/25 04:09:35;;;;;;;10.35;2.97;;;19.60;84.90;;;;;;5043096;28;20028;-78
2022/06/25 04:12:00;;;;;;;5.20;2.53;;;19.60;84.80;;;;;;5041185;28;20021;-78
2022/06/25 04:14:26;;;;;;;4.32;2.70;;;19.60;84.70;;;;;;5043888;28;20527;-78
2022/06/25 04:16:54;;;;;;;7.80;3.45;;;19.60;84.40;;;;;;5043986;28;20079;-77
2022/06/25 04:19:19;;;;;;;6.43;3.50;;;19.60;84.20;;;;;;5037231;28;20014;-78
2022/06/25 04:21:47;;;;;;;6.68;3.28;;;19.60;84.30;;;;;;5042771;28;20013;-78
2022/06/25 04:24:15;;;;;;;5.88;3.85;;;19.60;84.40;;;;;;5046967;28;20121;-79
2022/06/25 04:26:41;;;;;;;5.85;2.80;;;19.70;84.50;;;;;;5042528;28;20078;-78
2022/06/25 04:29:08;;;;;;;4.82;3.05;;;19.70;84.10;;;;;;5045048;28;20021;-78
2022/06/25 04:31:36;;;;;;;4.40;2.63;;;19.70;83.80;;;;;;5041208;28;20116;-78
2022/06/25 04:34:03;;;;;;;6.63;4.32;;;19.70;84.20;;;;;;5041401;28;20037;-78
2022/06/25 04:36:29;;;;;;;9.68;3.80;;;19.60;84.20;;;;;;5046895;28;20040;-79
2022/06/25 04:38:55;;;;;;;9.35;4.72;;;19.70;84.40;;;;;;5041381;28;20022;-78
2022/06/25 04:41:21;;;;;;;8.85;3.92;;;19.70;83.90;;;;;;5041950;28;20052;-80
2022/06/25 04:43:47;;;;;;;6.82;3.55;;;19.70;83.90;;;;;;5041674;28;20013;-77
2022/06/25 04:46:13;;;;;;;8.95;3.55;;;19.70;84.00;;;;;;5046039;28;20027;-78
2022/06/25 04:48:39;;;;;;;4.43;3.03;;;19.70;84.20;;;;;;5035936;28;20029;-78
2022/06/25 04:51:05;;;;;;;9.38;4.68;;;19.80;84.10;;;;;;5045847;28;20085;-78
2022/06/25 04:53:32;;;;;;;5.45;2.83;;;19.80;84.10;;;;;;5039761;28;20032;-78
2022/06/25 04:55:58;;;;;;;8.57;5.03;;;19.80;83.50;;;;;;5043402;28;20029;-78
2022/06/25 04:58:23;;;;;;;6.55;3.67;;;19.80;83.20;;;;;;5037732;28;20396;-78
2022/06/25 05:00:49;;;;;;;7.78;3.95;;;19.80;83.80;;;;;;5042273;28;20048;-78
2022/06/25 05:03:15;;;;;;;7.55;3.65;;;19.90;83.50;;;;;;5038562;28;20017;-78
2022/06/25 05:05:41;;;;;;;7.03;3.65;;;19.90;83.20;;;;;;5045175;28;20036;-79
2022/06/25 05:08:07;;;;;;;4.50;2.35;;;20.00;84.00;;;;;;5038948;28;20047;-78
2022/06/25 05:10:32;;;;;;;8.27;5.05;;;20.10;83.00;;;;;;5041327;28;20020;-78
2022/06/25 05:13:13;;;;;;;4.63;2.83;;;20.20;82.70;;;;;;5041435;28;20025;-78
2022/06/25 05:15:43;;;;;;;6.57;3.50;;;20.30;82.30;;;;;;5042503;28;20028;-78
2022/06/25 05:18:10;;;;;;;5.70;3.25;;;20.30;82.50;;;;;;5038949;28;20025;-77
2022/06/25 05:20:41;;;;;;;8.55;4.50;;;20.40;82.20;;;;;;5045670;28;20024;-78
2022/06/25 05:23:07;;;;;;;6.55;3.63;;;20.40;82.10;;;;;;5049933;28;20033;-78
2022/06/25 05:25:33;;;;;;;7.18;3.63;;;20.40;81.70;;;;;;5041896;28;20764;-77
2022/06/25 05:27:59;;;;;;;6.13;3.50;;;20.50;81.80;;;;;;5038831;28;20025;-77
2022/06/25 05:30:25;;;;;;;9.80;3.60;;;20.60;80.90;;;;;;5040920;28;20028;-79
2022/06/25 05:32:51;;;;;;;7.35;4.35;;;20.60;80.80;;;;;;5045511;28;20031;-78
2022/06/25 05:35:18;;;;;;;8.18;3.50;;;20.70;79.80;;;;;;5037597;28;20443;-78
2022/06/25 05:37:44;;;;;;;7.13;4.15;;;20.70;80.10;;;;;;5045131;28;20022;-78
2022/06/25 05:40:10;;;;;;;5.78;3.33;;;20.80;80.00;;;;;;5035132;28;20114;-79
2022/06/25 05:42:36;;;;;;;7.43;4.68;;;20.90;79.00;;;;;;5038029;28;20071;-78
2022/06/25 05:45:03;;;;;;;5.15;3.42;;;20.90;79.20;;;;;;5046057;28;20104;-79
2022/06/25 05:47:29;;;;;;;8.02;3.80;;;20.90;80.10;;;;;;5043111;28;20029;-78
2022/06/25 05:49:55;;;;;;;7.93;4.28;;;20.90;79.30;;;;;;5048715;28;20086;-77
2022/06/25 05:52:21;;;;;;;5.68;3.38;;;20.90;78.80;;;;;;5044282;28;20028;-78
2022/06/25 05:54:46;;;;;;;7.28;3.78;;;20.80;78.70;;;;;;5048579;28;20052;-78
2022/06/25 05:57:12;;;;;;;9.55;5.03;;;20.90;79.50;;;;;;5040221;28;20124;-78
2022/06/25 05:59:37;;;;;;;4.47;2.25;;;20.90;79.70;;;;;;5037637;28;20021;-78
2022/06/25 06:02:03;;;;;;;12.10;4.70;;;20.90;77.60;;;;;;5044334;28;20114;-78
2022/06/25 06:04:29;;;;;;;7.70;3.50;;;20.80;79.40;;;;;;5043917;28;20025;-78
2022/06/25 06:06:54;;;;;;;5.05;3.17;;;20.90;78.90;;;;;;5042658;28;20127;-78
2022/06/25 06:09:22;;;;;;;2.63;1.88;;;20.90;78.60;;;;;;5039270;28;20043;-77
2022/06/25 06:11:48;;;;;;;4.85;3.10;;;21.00;77.70;;;;;;5035286;28;20471;-79
2022/06/25 06:14:13;;;;;;;6.35;3.17;;;21.10;78.10;;;;;;5047507;28;20025;-79
2022/06/25 06:16:39;;;;;;;9.93;4.15;;;21.20;77.80;;;;;;5044424;28;20029;-77
2022/06/25 06:19:05;;;;;;;5.85;3.10;;;21.30;78.30;;;;;;5047924;28;20448;-78
2022/06/25 06:21:32;;;;;;;6.15;2.65;;;21.40;77.10;;;;;;5051880;28;20478;-78
2022/06/25 06:23:58;;;;;;;6.75;3.25;;;21.50;75.80;;;;;;5035936;28;20022;-78
2022/06/25 06:26:24;;;;;;;5.88;3.60;;;21.40;76.80;;;;;;5036333;28;20017;-78
2022/06/25 06:28:49;;;;;;;6.55;2.67;;;21.50;77.40;;;;;;5049110;28;20024;-80
2022/06/25 06:31:15;;;;;;;5.63;3.63;;;21.60;76.10;;;;;;5063330;28;20588;-78
2022/06/25 06:33:41;;;;;;;5.35;2.60;;;21.60;75.60;;;;;;5057027;28;20087;-79
2022/06/25 06:36:07;;;;;;;6.63;3.08;;;21.60;75.70;;;;;;5047824;28;20479;-78
2022/06/25 06:38:35;;;;;;;9.18;3.80;;;21.80;75.80;;;;;;5049515;28;20025;-80
2022/06/25 06:41:00;;;;;;;8.25;3.55;;;21.90;74.80;;;;;;5035342;28;20542;-78
2022/06/25 06:43:26;;;;;;;9.93;4.18;;;22.00;75.10;;;;;;5055037;28;20040;-79
2022/06/25 06:45:52;;;;;;;5.65;2.88;;;21.90;73.90;;;;;;5062754;28;20035;-78
2022/06/25 06:48:17;;;;;;;5.60;2.75;;;21.90;74.30;;;;;;5046113;28;20033;-78
2022/06/25 06:50:43;;;;;;;5.25;3.10;;;22.00;74.50;;;;;;5043369;28;20028;-78
2022/06/25 06:53:08;;;;;;;5.47;2.95;;;22.10;74.20;;;;;;5051076;28;20017;-78
2022/06/25 06:55:34;;;;;;;5.63;2.90;;;22.10;74.40;;;;;;5063079;28;20013;-79
2022/06/25 06:58:00;;;;;;;6.18;2.65;;;22.20;74.40;;;;;;5052458;28;20032;-78
2022/06/25 07:00:26;;;;;;;4.88;2.33;;;22.10;73.90;;;;;;5062028;28;20424;-78
2022/06/25 07:02:51;;;;;;;8.10;3.70;;;22.10;73.20;;;;;;5039159;28;20117;-78
2022/06/25 07:05:17;;;;;;;6.20;2.90;;;22.20;73.00;;;;;;5057401;28;20024;-79
2022/06/25 07:07:43;;;;;;;5.57;2.40;;;22.10;73.30;;;;;;5053064;28;20032;-78
2022/06/25 07:10:08;;;;;;;8.63;3.53;;;22.20;73.80;;;;;;5061393;28;20115;-79
2022/06/25 07:12:34;;;;;;;5.57;2.63;;;22.30;73.10;;;;;;5074161;28;20389;-80
2022/06/25 07:15:00;;;;;;;3.45;1.15;;;22.40;72.80;;;;;;5071359;28;20052;-81
2022/06/25 07:17:25;;;;;;;9.68;3.33;;;22.50;70.30;;;;;;5052825;28;20504;-79
2022/06/25 07:19:52;;;;;;;5.47;1.80;;;22.70;70.40;;;;;;5045341;28;20040;-80
2022/06/25 07:22:17;;;;;;;5.50;1.85;;;22.70;70.00;;;;;;5063804;28;20035;-80
2022/06/25 07:24:43;;;;;;;4.40;1.40;;;22.90;69.30;;;;;;5052816;28;20013;-78
2022/06/25 07:27:09;;;;;;;15.07;4.63;;;23.00;69.00;;;;;;5060913;28;20051;-78
2022/06/25 07:29:34;;;;;;;5.50;1.80;;;23.10;69.20;;;;;;5050882;28;20029;-77
2022/06/25 07:32:00;;;;;;;5.60;2.70;;;23.10;69.00;;;;;;5062274;28;20023;-76
2022/06/25 07:34:27;;;;;;;3.30;1.40;;;23.20;69.40;;;;;;5067495;28;20028;-79
2022/06/25 07:36:52;;;;;;;6.60;2.40;;;23.40;68.70;;;;;;5056085;28;20024;-77
2022/06/25 07:39:18;;;;;;;4.93;2.35;;;23.40;68.40;;;;;;5050278;28;20067;-76
2022/06/25 07:41:44;;;;;;;5.57;1.90;;;23.40;68.80;;;;;;5047660;28;20033;-77
2022/06/25 07:44:09;;;;;;;5.63;2.00;;;23.50;68.80;;;;;;5049704;28;20119;-76
2022/06/25 07:46:35;;;;;;;6.22;2.65;;;23.50;67.30;;;;;;5049470;28;20017;-76
2022/06/25 07:49:01;;;;;;;4.93;1.95;;;23.40;67.90;;;;;;5047425;28;20048;-78
2022/06/25 07:54:13;;;;;;;6.10;1.70;;;23.40;68.40;;;;;;5045673;28;20056;-82
2022/06/25 07:56:38;;;;;;;7.72;3.33;;;23.60;67.20;;;;;;5044943;28;20053;-76
2022/06/25 07:59:05;;;;;;;4.88;1.58;;;23.80;67.10;;;;;;5042820;28;20048;-77
2022/06/25 08:01:30;;;;;;;7.13;1.63;;;23.90;66.30;;;;;;5039887;28;20032;-78
2022/06/25 08:03:56;;;;;;;4.10;1.75;;;24.00;66.00;;;;;;5040930;28;20025;-78
2022/06/25 08:06:21;;;;;;;4.25;1.77;;;24.20;66.20;;;;;;5046091;28;20024;-76
2022/06/25 08:08:47;;;;;;;3.55;1.63;;;24.30;65.60;;;;;;5045861;28;20035;-78
2022/06/25 08:11:13;;;;;;;7.05;1.90;;;24.10;65.00;;;;;;5043928;28;20024;-77
2022/06/25 08:13:39;;;;;;;6.13;1.50;;;24.00;65.70;;;;;;5042290;28;20116;-77
2022/06/25 08:16:05;;;;;;;4.10;1.50;;;23.90;66.20;;;;;;5044402;28;20021;-76
2022/06/25 08:18:31;;;;;;;3.63;1.40;;;23.80;66.60;;;;;;5056742;28;20063;-76
2022/06/25 08:20:59;;;;;;;3.50;1.00;;;23.80;66.30;;;;;;5046598;28;20040;-76
2022/06/25 08:23:25;;;;;;;2.13;0.90;;;23.80;66.40;;;;;;5059695;28;20550;-79
2022/06/25 08:25:50;;;;;;;3.78;1.13;;;23.90;66.20;;;;;;5049899;28;20025;-78
2022/06/25 08:28:17;;;;;;;2.83;1.13;;;24.10;65.70;;;;;;5062126;28;20023;-76
2022/06/25 08:30:43;;;;;;;2.83;1.00;;;24.20;64.90;;;;;;5049907;28;20028;-77
2022/06/25 08:33:09;;;;;;;4.85;1.30;;;24.40;64.40;;;;;;5049408;28;20059;-78
2022/06/25 08:35:36;;;;;;;2.47;0.95;;;24.60;64.40;;;;;;5067535;28;20028;-76
2022/06/25 08:38:02;;;;;;;7.15;2.05;;;24.80;63.60;;;;;;5056226;28;20040;-77
2022/06/25 08:40:27;;;;;;;1.58;0.70;;;24.90;63.20;;;;;;5059305;28;20127;-77
2022/06/25 08:42:54;;;;;;;2.78;1.08;;;24.90;62.70;;;;;;5059507;28;20558;-76
2022/06/25 08:45:20;;;;;;;2.80;0.85;;;24.90;62.10;;;;;;5066767;28;20100;-77
2022/06/25 08:47:50;;;;;;;2.55;0.90;;;24.80;61.30;;;;;;5063825;28;20108;-76
2022/06/25 08:50:21;;;;;;;2.35;1.08;;;24.80;62.20;;;;;;5058135;28;20025;-77
2022/06/25 08:52:48;;;;;;;3.75;1.20;;;24.90;62.40;;;;;;5054600;28;20025;-76
2022/06/25 08:55:19;;;;;;;2.78;0.90;;;24.80;61.80;;;;;;5057052;28;20039;-76
2022/06/25 08:57:46;;;;;;;2.72;0.75;;;24.70;62.40;;;;;;5067863;28;20017;-76
2022/06/25 09:00:12;;;;;;;2.33;0.93;;;24.70;63.20;;;;;;5034966;28;20040;-77
2022/06/25 09:02:39;;;;;;;3.92;0.90;;;24.70;63.50;;;;;;5031381;28;20111;-76
2022/06/25 09:05:08;;;;;;;4.18;1.05;;;24.70;63.40;;;;;;5060120;28;20683;-77
2022/06/25 09:07:36;;;;;;;3.70;0.93;;;24.50;63.50;;;;;;5048793;28;20028;-76
2022/06/25 09:10:02;;;;;;;3.42;1.00;;;24.40;64.00;;;;;;5052834;28;20474;-77
2022/06/25 09:12:28;;;;;;;3.45;1.13;;;24.40;64.50;;;;;;5068678;28;20052;-75
2022/06/25 09:14:53;;;;;;;2.65;0.82;;;24.40;64.10;;;;;;5061932;28;20079;-78
2022/06/25 09:17:19;;;;;;;2.47;1.38;;;24.50;64.20;;;;;;5046419;28;20017;-76
2022/06/25 09:19:48;;;;;;;2.88;1.40;;;24.50;64.00;;;;;;5049524;28;20404;-78
2022/06/25 09:22:22;;;;;;;3.30;1.10;;;24.50;64.10;;;;;;5043082;28;20032;-76
2022/06/25 09:24:51;;;;;;;2.08;0.90;;;24.40;63.70;;;;;;5052416;28;20095;-77
2022/06/25 09:27:41;;;;;;;2.35;0.80;;;24.40;64.90;;;;;;5066344;28;20920;-77
2022/06/25 09:30:12;;;;;;;2.42;1.10;;;24.30;65.20;;;;;;5053737;28;20036;-79
2022/06/25 09:32:54;;;;;;;2.20;1.00;;;24.20;65.10;;;;;;5067549;28;20036;-77
2022/06/25 09:35:37;;;;;;;3.25;1.23;;;24.10;64.50;;;;;;5056445;28;20493;-78
2022/06/25 09:38:07;;;;;;;5.65;1.05;;;23.90;64.80;;;;;;5034042;28;20032;-79
2022/06/25 09:40:34;;;;;;;3.45;0.93;;;23.80;65.80;;;;;;5060097;28;20621;-79
2022/06/25 09:43:11;;;;;;;1.73;0.77;;;23.80;66.70;;;;;;5048860;28;20124;-77
2022/06/25 09:45:37;;;;;;;4.80;1.10;;;23.70;66.80;;;;;;5058179;28;20050;-77
2022/06/25 09:48:03;;;;;;;4.05;1.50;;;23.70;67.30;;;;;;5050381;28;20391;-78
2022/06/25 09:50:29;;;;;;;3.97;1.23;;;23.60;66.30;;;;;;5057010;28;20039;-79
2022/06/25 09:52:59;;;;;;;4.32;1.08;;;23.50;67.10;;;;;;5051078;28;20029;-79
2022/06/25 09:55:27;;;;;;;2.47;1.13;;;23.40;67.40;;;;;;5054883;28;20378;-78
2022/06/25 09:57:53;;;;;;;3.63;1.45;;;23.40;67.90;;;;;;5048201;28;20014;-78
2022/06/25 10:00:20;;;;;;;3.20;0.88;;;23.30;67.50;;;;;;5040334;28;20107;-77
2022/06/25 10:02:48;;;;;;;2.70;1.13;;;23.40;67.70;;;;;;5056650;28;20070;-76
2022/06/25 10:05:17;;;;;;;4.95;1.60;;;23.40;67.90;;;;;;5048228;28;20013;-79
2022/06/25 10:07:59;;;;;;;4.33;1.37;;;23.50;68.20;;;;;;5063217;28;20421;-79
2022/06/25 10:10:48;;;;;;;3.22;1.05;;;23.50;67.80;;;;;;5065640;28;20267;-77
2022/06/25 10:13:14;;;;;;;3.83;2.25;;;23.50;67.70;;;;;;5039136;28;20037;-77
2022/06/25 10:15:45;;;;;;;6.05;1.70;;;23.70;67.60;;;;;;5038432;28;20132;-79
2022/06/25 10:18:11;;;;;;;5.57;2.10;;;23.70;66.80;;;;;;5071086;28;20029;-77
2022/06/25 10:20:42;;;;;;;4.97;1.98;;;23.70;66.90;;;;;;5070613;28;20409;-79
2022/06/25 10:23:12;;;;;;;5.93;1.80;;;23.80;67.20;;;;;;5060125;28;20123;-80
2022/06/25 10:25:39;;;;;;;4.38;1.58;;;23.80;66.60;;;;;;5065915;28;20055;-78
2022/06/25 10:28:13;;;;;;;6.60;1.80;;;23.70;66.70;;;;;;5048184;28;20029;-80
2022/06/25 10:30:45;;;;;;;3.13;1.20;;;23.70;66.90;;;;;;5042651;28;20025;-78
2022/06/25 10:33:12;;;;;;;4.13;1.20;;;23.70;67.40;;;;;;5058197;28;20018;-78
2022/06/25 10:35:40;;;;;;;1.98;1.17;;;23.60;66.50;;;;;;5048854;28;20060;-79
2022/06/25 10:38:16;;;;;;;4.97;1.45;;;23.70;67.40;;;;;;5059975;28;20382;-78
2022/06/25 10:40:57;;;;;;;5.80;1.50;;;23.70;66.70;;;;;;5038224;28;20053;-77
2022/06/25 10:43:55;;;;;;;2.58;0.82;;;23.60;66.40;;;;;;5040880;28;20037;-77
2022/06/25 10:46:25;;;;;;;2.88;1.58;;;23.60;67.30;;;;;;5047355;28;20051;-77
2022/06/25 10:49:10;;;;;;;2.90;1.20;;;23.60;67.50;;;;;;5058646;28;20018;-77
2022/06/25 10:51:44;;;;;;;4.47;1.30;;;23.60;67.40;;;;;;5048966;28;20033;-78
2022/06/25 10:54:23;;;;;;;4.05;1.40;;;23.50;67.40;;;;;;5039710;28;20017;-76
2022/06/25 10:56:53;;;;;;;3.58;1.20;;;23.50;67.50;;;;;;5037800;28;20100;-77
2022/06/25 10:59:45;;;;;;;;;;;23.40;68.00;;;;;;5043187;28;20032;-78
2022/06/25 11:02:15;;;;;;;3.50;1.23;;;23.50;68.10;;;;;;5035489;28;19916;-76
2022/06/25 11:04:52;;;;;;;3.67;1.50;;;23.40;68.20;;;;;;5056855;28;20026;-76
2022/06/25 11:07:20;;;;;;;2.42;0.80;;;23.50;68.70;;;;;;5049323;28;20112;-77
2022/06/25 11:10:00;;;;;;;3.90;2.13;;;23.50;68.30;;;;;;5047631;28;20057;-77
2022/06/25 11:12:28;;;;;;;3.45;1.40;;;23.60;68.20;;;;;;5047469;28;20517;-76
2022/06/25 11:15:06;;;;;;;2.30;1.00;;;23.70;67.60;;;;;;5047764;28;20065;-76
2022/06/25 11:17:33;;;;;;;2.08;1.20;;;23.70;67.50;;;;;;5042107;28;20033;-76
2022/06/25 11:20:25;;;;;;;1.98;1.20;;;23.80;67.30;;;;;;5051856;28;20033;-77
2022/06/25 11:22:51;;;;;;;2.67;1.15;;;23.80;66.90;;;;;;5039322;28;20071;-76
2022/06/25 11:30:49;;;;;;;3.65;1.90;;;23.60;67.50;;;;;;5055339;28;20043;-76
2022/06/25 11:33:15;;;;;;;4.15;1.88;;;23.60;67.60;;;;;;5050937;28;20016;-77
2022/06/25 11:35:43;;;;;;;4.57;1.50;;;23.70;67.70;;;;;;5061208;28;20367;-77
2022/06/25 11:38:21;;;;;;;4.30;1.30;;;23.70;67.20;;;;;;5064598;28;20017;-77
2022/06/25 11:40:47;;;;;;;3.50;1.75;;;23.80;67.20;;;;;;5030980;28;20046;-77
2022/06/25 11:43:14;;;;;;;4.53;1.55;;;24.00;66.80;;;;;;5044875;28;20043;-77
2022/06/25 11:45:50;;;;;;;3.92;1.52;;;24.10;65.90;;;;;;5047538;28;20130;-75
2022/06/25 11:48:16;;;;;;;2.97;1.20;;;24.30;65.80;;;;;;5045753;28;20021;-76
2022/06/25 11:50:42;;;;;;;3.00;1.30;;;24.40;65.40;;;;;;5057115;28;20108;-76
2022/06/25 11:53:09;;;;;;;3.65;1.20;;;24.60;65.00;;;;;;5057896;28;20064;-77
2022/06/25 11:55:37;;;;;;;4.20;1.30;;;24.80;64.80;;;;;;5063147;28;20021;-76
2022/06/25 11:58:03;;;;;;;7.15;1.20;;;25.20;63.70;;;;;;5051103;28;20025;-78
2022/06/25 12:00:30;;;;;;;5.43;1.23;;;25.40;63.40;;;;;;5062948;28;20021;-76
2022/06/25 12:03:05;;;;;;;3.72;1.08;;;25.60;62.50;;;;;;5050413;28;20385;-76
2022/06/25 12:05:34;;;;;;;3.08;1.30;;;25.90;62.40;;;;;;5063365;28;20032;-77
2022/06/25 12:07:59;;;;;;;4.68;1.23;;;26.20;61.80;;;;;;5045197;28;20033;-78
2022/06/25 12:10:28;;;;;;;2.03;1.00;;;26.40;61.30;;;;;;5049686;28;20025;-77
2022/06/25 12:12:53;;;;;;;2.28;0.90;;;26.30;61.50;;;;;;5067458;28;20110;-76
2022/06/25 12:15:27;;;;;;;2.03;0.90;;;26.10;62.10;;;;;;5060260;28;20017;-76
2022/06/25 12:18:05;;;;;;;3.08;1.00;;;26.10;62.40;;;;;;5068161;28;20036;-77
2022/06/25 12:20:31;;;;;;;3.00;1.17;;;26.00;62.50;;;;;;5061903;28;20024;-77
2022/06/25 12:22:59;;;;;;;10.13;2.28;;;25.90;62.00;;;;;;5044576;28;20047;-76
2022/06/25 12:25:25;;;;;;;3.83;1.38;;;25.70;62.30;;;;;;5056955;28;20016;-77
2022/06/25 12:27:51;;;;;;;3.58;1.33;;;25.70;61.80;;;;;;5055386;28;20049;-76
2022/06/25 12:30:35;;;;;;;3.75;1.83;;;25.90;61.20;;;;;;5054096;28;20052;-76
2022/06/25 12:33:13;;;;;;;8.15;2.30;;;26.00;60.10;;;;;;5055791;28;20033;-76
2022/06/25 12:35:45;;;;;;;4.22;1.35;;;25.90;60.10;;;;;;5053850;28;20024;-76
2022/06/25 12:38:15;;;;;;;1.75;0.95;;;25.90;60.80;;;;;;5048446;28;20022;-76
2022/06/25 12:40:46;;;;;;;3.85;1.25;;;25.90;61.70;;;;;;5042249;28;20045;-76
2022/06/25 12:43:14;;;;;;;4.07;1.40;;;26.00;61.50;;;;;;5057622;28;20372;-75
2022/06/25 12:45:41;;;;;;;4.22;1.67;;;26.00;61.70;;;;;;5063934;28;20476;-77
2022/06/25 12:48:11;;;;;;;5.13;1.77;;;25.90;60.10;;;;;;5044027;28;20083;-75
2022/06/25 12:50:40;;;;;;;6.00;1.45;;;26.00;61.20;;;;;;5032148;28;20038;-76
2022/06/25 12:53:14;;;;;;;4.78;1.27;;;26.30;61.30;;;;;;5045579;28;20417;-76
2022/06/25 12:55:44;;;;;;;4.22;1.52;;;26.70;60.00;;;;;;5052859;28;20024;-76
2022/06/25 12:58:12;;;;;;;3.70;0.90;;;27.00;59.00;;;;;;5060612;28;20036;-75
2022/06/25 13:00:39;;;;;;;4.55;1.55;;;27.20;59.40;;;;;;5052335;28;20036;-76
2022/06/25 13:03:05;;;;;;;6.80;1.98;;;27.20;59.10;;;;;;5040864;28;20041;-75
2022/06/25 13:05:31;;;;;;;5.28;1.70;;;27.10;57.80;;;;;;5049065;28;20024;-75
2022/06/25 13:07:57;;;;;;;3.72;1.50;;;26.90;58.20;;;;;;5054275;28;20042;-75
2022/06/25 13:10:23;;;;;;;2.10;0.90;;;26.80;59.40;;;;;;5069034;28;20037;-75